Time;durP1;ratioP1;P1;durP2;ratioP2;P2;SDS_P1;SDS_P2;PMS_P1;PMS_P2;Temp;Humidity;BMP_temperature;BMP_pressure;BME280_temperature;BME280_humidity;BME280_pressure;Samples;Min_cycle;Max_cycle;Signal;HPM_P1;HPM_P2
2022/11/25 00:00:24;;;;;;;15.40;2.83;;;;;;;8.19;100.00;100798.59;4952377;28;20053;-62
2022/11/25 00:02:49;;;;;;;11.73;2.92;;;;;;;8.20;100.00;100790.06;4951646;28;20019;-62
2022/11/25 00:05:15;;;;;;;11.00;2.22;;;;;;;8.21;100.00;100799.56;4951682;28;20123;-62
2022/11/25 00:07:40;;;;;;;14.73;2.97;;;;;;;8.23;100.00;100795.34;4951410;28;20035;-62
2022/11/25 00:10:06;;;;;;;14.45;2.60;;;;;;;8.24;100.00;100791.97;4952157;28;20046;-61
2022/11/25 00:12:31;;;;;;;10.50;2.42;;;;;;;8.27;100.00;100790.34;4951598;28;20043;-62
2022/11/25 00:14:56;;;;;;;8.25;2.17;;;;;;;8.32;100.00;100779.34;4951913;28;20058;-63
2022/11/25 00:17:22;;;;;;;10.13;2.13;;;;;;;8.34;100.00;100794.09;4955282;28;20394;-63
2022/11/25 00:19:47;;;;;;;13.07;3.60;;;;;;;8.34;100.00;100776.00;4962001;28;20063;-62
2022/11/25 00:22:13;;;;;;;10.55;2.47;;;;;;;8.37;100.00;100780.41;4951383;28;20332;-62
2022/11/25 00:24:39;;;;;;;9.05;2.08;;;;;;;8.38;100.00;100772.72;4957019;28;20027;-62
2022/11/25 00:27:04;;;;;;;14.93;2.78;;;;;;;8.40;100.00;100773.66;4957323;28;20110;-62
2022/11/25 00:29:30;;;;;;;11.23;2.58;;;;;;;8.42;100.00;100771.13;4964009;28;20045;-62
2022/11/25 00:31:55;;;;;;;10.95;2.30;;;;;;;8.42;100.00;100771.13;4951573;28;20031;-62
2022/11/25 00:34:20;;;;;;;10.38;2.40;;;;;;;8.43;100.00;100762.59;4951847;28;20031;-62
2022/11/25 00:36:46;;;;;;;14.15;2.67;;;;;;;8.48;100.00;100766.22;4958648;28;20030;-63
2022/11/25 00:39:16;;;;;;;11.88;2.50;;;;;;;8.49;100.00;100761.94;4957261;28;20042;-62
2022/11/25 00:44:35;;;;;;;11.23;2.25;;;;;;;8.47;100.00;100763.59;4964238;28;20403;-62
2022/11/25 00:47:04;;;;;;;12.90;2.55;;;;;;;8.46;100.00;100766.97;4950714;28;20055;-63
2022/11/25 00:49:30;;;;;;;9.25;2.38;;;;;;;8.43;100.00;100754.84;4965377;28;20276;-62
2022/11/25 00:51:55;;;;;;;11.27;2.25;;;;;;;8.43;100.00;100761.69;4973625;28;20048;-62
2022/11/25 00:54:20;;;;;;;15.00;3.13;;;;;;;8.43;100.00;100761.69;4953489;28;20279;-62
2022/11/25 00:56:46;;;;;;;11.40;2.70;;;;;;;8.41;100.00;100757.38;4973901;28;20088;-62
2022/11/25 00:59:11;;;;;;;11.40;2.10;;;;;;;8.41;100.00;100759.94;4979367;28;20043;-62
2022/11/25 01:01:37;;;;;;;12.15;3.70;;;;;;;8.40;100.00;100768.50;4951439;28;20027;-62
2022/11/25 01:04:04;;;;;;;13.73;2.15;;;;;;;8.42;100.00;100773.72;4950861;28;20035;-62
2022/11/25 01:06:29;;;;;;;14.77;2.83;;;;;;;8.41;100.00;100777.13;4951615;28;20391;-62
2022/11/25 01:08:55;;;;;;;10.18;2.55;;;;;;;8.41;100.00;100774.56;4950719;28;20530;-62
2022/11/25 01:11:22;;;;;;;11.43;3.35;;;;;;;8.43;100.00;100777.19;4951214;28;20051;-62
2022/11/25 01:13:47;;;;;;;12.40;2.22;;;;;;;8.43;100.00;100778.06;4951101;28;20023;-62
2022/11/25 01:16:16;;;;;;;12.95;2.40;;;;;;;8.43;100.00;100774.59;4950585;28;20058;-62
2022/11/25 01:18:42;;;;;;;10.73;2.58;;;;;;;8.43;100.00;100772.03;4951000;28;20110;-62
2022/11/25 01:21:11;;;;;;;12.40;3.22;;;;;;;8.43;100.00;100770.34;4950884;28;20035;-62
2022/11/25 01:23:36;;;;;;;11.57;2.33;;;;;;;8.45;100.00;100775.56;4951414;28;20039;-63
2022/11/25 01:26:07;;;;;;;12.00;2.40;;;;;;;8.45;100.00;100771.28;4951010;28;20530;-62
2022/11/25 01:28:32;;;;;;;11.55;2.60;;;;;;;8.48;100.00;100778.25;4956984;28;20056;-62
2022/11/25 01:31:03;;;;;;;13.68;2.72;;;;;;;8.49;100.00;100777.44;4955402;28;20024;-62
2022/11/25 01:33:31;;;;;;;11.27;2.78;;;;;;;8.51;100.00;100791.28;4950911;28;20019;-62
2022/11/25 01:36:08;;;;;;;9.60;2.28;;;;;;;8.51;100.00;100784.41;4950844;28;20384;-63
2022/11/25 01:38:35;;;;;;;12.40;2.70;;;;;;;8.52;100.00;100778.44;4950754;28;20109;-63
2022/11/25 01:41:01;;;;;;;8.77;2.50;;;;;;;8.55;100.00;100781.94;4950670;28;20031;-63
2022/11/25 01:43:27;;;;;;;10.90;2.20;;;;;;;8.59;100.00;100792.50;4949857;28;20539;-62
2022/11/25 01:46:03;;;;;;;10.52;2.53;;;;;;;8.60;100.00;100796.84;4950330;28;20059;-62
2022/11/25 01:48:44;;;;;;;16.58;3.60;;;;;;;8.62;100.00;100802.97;4954699;28;20051;-62
2022/11/25 01:51:20;;;;;;;;;;;;;;;8.62;100.00;100794.31;4950960;28;20585;-62
2022/11/25 01:53:45;;;;;;;16.52;3.10;;;;;;;8.64;100.00;100806.50;4974533;28;19933;-62
2022/11/25 01:56:11;;;;;;;15.77;2.63;;;;;;;8.63;100.00;100807.28;4963152;28;20475;-63
2022/11/25 01:58:38;;;;;;;11.85;2.35;;;;;;;8.64;100.00;100813.34;4962202;28;20078;-63
2022/11/25 02:01:03;;;;;;;13.90;2.95;;;;;;;8.65;100.00;100812.53;4950580;28;20026;-62
2022/11/25 02:03:35;;;;;;;11.10;3.15;;;;;;;8.65;100.00;100813.41;4950226;28;20037;-63
2022/11/25 02:06:13;;;;;;;11.93;2.30;;;;;;;8.73;100.00;100828.34;4950684;28;20031;-62
2022/11/25 02:08:39;;;;;;;12.25;3.08;;;;;;;8.77;100.00;100823.38;4952789;28;20046;-62
2022/11/25 02:11:05;;;;;;;10.20;2.83;;;;;;;8.82;100.00;100828.69;4960827;28;20407;-62
2022/11/25 02:13:32;;;;;;;10.90;2.10;;;;;;;8.83;100.00;100838.19;4950217;28;20033;-62
2022/11/25 02:15:57;;;;;;;11.55;3.35;;;;;;;8.81;100.00;100836.41;4950195;28;20467;-62
2022/11/25 02:18:24;;;;;;;16.02;3.60;;;;;;;8.82;100.00;100832.97;4949304;28;20041;-62
2022/11/25 02:20:49;;;;;;;10.38;2.30;;;;;;;8.81;100.00;100837.28;4949897;28;20031;-63
2022/11/25 02:23:36;;;;;;;11.30;2.63;;;;;;;8.80;100.00;100845.84;4949979;28;20456;-62
2022/11/25 02:26:03;;;;;;;12.07;3.03;;;;;;;8.79;100.00;100838.91;4950035;28;20041;-62
2022/11/25 02:28:31;;;;;;;11.93;2.63;;;;;;;8.80;100.00;100843.25;4956027;28;20109;-62
2022/11/25 02:30:58;;;;;;;13.55;2.67;;;;;;;8.78;100.00;100850.06;4955332;28;20087;-63
2022/11/25 02:33:24;;;;;;;11.15;2.70;;;;;;;8.76;100.00;100838.81;4949763;28;20388;-62
2022/11/25 02:35:58;;;;;;;8.43;2.83;;;;;;;8.72;100.00;100857.59;4958071;28;20035;-62
2022/11/25 02:38:23;;;;;;;10.98;2.60;;;;;;;8.71;100.00;100854.09;4956367;28;20471;-63
2022/11/25 02:40:59;;;;;;;7.90;2.78;;;;;;;8.67;100.00;100854.78;4955503;28;20093;-62
2022/11/25 02:43:25;;;;;;;7.38;1.85;;;;;;;8.62;100.00;100859.78;4950460;28;20035;-62
2022/11/25 02:45:53;;;;;;;8.98;2.10;;;;;;;8.60;100.00;100869.19;4949777;28;20118;-63
2022/11/25 02:48:19;;;;;;;10.27;2.42;;;;;;;8.56;100.00;100877.63;4958475;28;20050;-62
2022/11/25 02:50:44;;;;;;;6.93;2.15;;;;;;;8.50;100.00;100867.91;4954029;28;20027;-62
2022/11/25 02:53:09;;;;;;;9.27;2.53;;;;;;;8.46;100.00;100868.59;4949637;28;20027;-63
2022/11/25 02:55:35;;;;;;;11.05;2.50;;;;;;;8.39;100.00;100867.47;4949917;28;20470;-62
2022/11/25 02:58:00;;;;;;;9.80;2.97;;;;;;;8.35;100.00;100862.09;4949273;28;20031;-63
2022/11/25 03:00:25;;;;;;;16.08;2.40;;;;;;;8.34;100.00;100861.22;4948984;28;20023;-62
2022/11/25 03:02:53;;;;;;;11.73;2.40;;;;;;;8.28;100.00;100851.50;4949721;28;20333;-63
2022/11/25 03:05:19;;;;;;;11.80;2.20;;;;;;;8.23;100.00;100836.66;4949121;28;20475;-62
2022/11/25 03:07:44;;;;;;;10.90;2.67;;;;;;;8.19;100.00;100821.84;4949706;28;20089;-63
2022/11/25 03:10:10;;;;;;;10.60;2.50;;;;;;;8.14;100.00;100807.06;4963905;28;20038;-63
2022/11/25 03:12:36;;;;;;;11.57;1.85;;;;;;;8.06;100.00;100782.59;4960055;28;20019;-63
2022/11/25 03:15:01;;;;;;;11.32;2.25;;;;;;;8.04;100.00;100797.19;4949330;28;20175;-62
2022/11/25 03:17:27;;;;;;;8.52;2.60;;;;;;;8.01;100.00;100799.59;4949296;28;20042;-62
2022/11/25 03:19:52;;;;;;;8.40;1.88;;;;;;;7.97;100.00;100802.91;4949116;28;20031;-62
2022/11/25 03:22:18;;;;;;;9.18;2.08;;;;;;;7.95;100.00;100817.44;4948930;28;20468;-62
2022/11/25 03:24:43;;;;;;;11.02;2.60;;;;;;;7.92;100.00;100824.22;4949333;28;20027;-62
2022/11/25 03:27:08;;;;;;;10.80;2.10;;;;;;;7.91;100.00;100835.38;4949478;28;20051;-62
2022/11/25 03:29:34;;;;;;;8.82;2.35;;;;;;;7.90;100.00;100833.59;4952833;28;20027;-62
2022/11/25 03:31:59;;;;;;;8.23;2.47;;;;;;;7.89;100.00;100816.34;4958467;28;20483;-62
2022/11/25 03:34:24;;;;;;;7.90;1.60;;;;;;;7.89;100.00;100811.19;4951402;28;20078;-63
2022/11/25 03:36:50;;;;;;;10.70;2.00;;;;;;;7.87;100.00;100828.31;4967574;28;20026;-62
2022/11/25 03:39:15;;;;;;;11.80;1.98;;;;;;;7.86;100.00;100851.47;4955282;28;20023;-63
2022/11/25 03:41:41;;;;;;;5.90;1.95;;;;;;;7.84;100.00;100864.31;4967446;28;20515;-62
2022/11/25 03:44:06;;;;;;;8.05;2.50;;;;;;;7.83;100.00;100856.47;4954330;28;20035;-62
2022/11/25 03:46:32;;;;;;;6.35;1.48;;;;;;;7.79;100.00;100865.78;4949042;28;20047;-62
2022/11/25 03:48:57;;;;;;;7.38;1.60;;;;;;;7.75;100.00;100863.88;4952903;28;20515;-63
2022/11/25 03:51:22;;;;;;;10.00;2.35;;;;;;;7.74;100.00;100863.00;4949272;28;20035;-62
2022/11/25 03:53:47;;;;;;;7.13;1.73;;;;;;;7.72;100.00;100864.63;4964440;28;20075;-62
2022/11/25 03:56:13;;;;;;;9.68;1.90;;;;;;;7.68;100.00;100858.44;4964538;28;20027;-62
2022/11/25 03:58:38;;;;;;;9.13;1.85;;;;;;;7.66;100.00;100865.22;4954476;28;20213;-63
2022/11/25 04:01:03;;;;;;;6.13;1.85;;;;;;;7.64;100.00;100869.47;4960126;28;20038;-62
2022/11/25 04:03:29;;;;;;;6.60;1.48;;;;;;;7.61;100.00;100882.19;4956074;28;20391;-62
2022/11/25 04:05:55;;;;;;;3.78;1.27;;;;;;;7.58;100.00;100887.22;4952113;28;20054;-62
2022/11/25 04:08:20;;;;;;;7.65;1.73;;;;;;;7.54;100.00;100885.31;4952298;28;20098;-62
2022/11/25 04:10:48;;;;;;;4.00;1.27;;;;;;;7.53;100.00;100878.41;4952228;28;20019;-62
2022/11/25 04:13:13;;;;;;;5.05;1.40;;;;;;;7.53;100.00;100888.72;4951558;28;20133;-62
2022/11/25 04:15:44;;;;;;;7.20;1.63;;;;;;;7.52;100.00;100889.53;4952131;28;20172;-63
2022/11/25 04:18:10;;;;;;;6.00;1.15;;;;;;;7.51;100.00;100900.66;4952042;28;20058;-62
2022/11/25 04:20:35;;;;;;;5.20;1.58;;;;;;;7.48;100.00;100895.38;4951623;28;20050;-62
2022/11/25 04:23:00;;;;;;;4.22;1.27;;;;;;;7.45;100.00;100901.25;4951614;28;20027;-62
2022/11/25 04:25:26;;;;;;;5.63;1.50;;;;;;;7.42;100.00;100912.31;4971478;28;20068;-62
2022/11/25 04:27:51;;;;;;;4.20;0.73;;;;;;;7.42;100.00;100911.44;4986860;28;20049;-62
2022/11/25 04:30:16;;;;;;;5.80;1.60;;;;;;;7.38;100.00;100910.41;4963339;28;20021;-62
2022/11/25 04:32:41;;;;;;;7.43;1.55;;;;;;;7.33;100.00;100912.78;4951854;28;20031;-63
2022/11/25 04:35:07;;;;;;;5.15;1.02;;;;;;;7.31;100.00;100916.09;4951441;28;20534;-62
2022/11/25 04:37:33;;;;;;;2.70;1.10;;;;;;;7.29;100.00;100925.44;4951836;28;20027;-63
2022/11/25 04:39:58;;;;;;;5.53;1.30;;;;;;;7.25;100.00;100939.88;4964675;28;20046;-62
2022/11/25 04:42:33;;;;;;;5.55;1.25;;;;;;;7.23;100.00;100938.94;4951785;28;20502;-62
2022/11/25 04:44:59;;;;;;;4.22;0.73;;;;;;;7.23;100.00;100945.78;4977202;28;20023;-62
2022/11/25 04:47:25;;;;;;;5.95;1.00;;;;;;;7.20;100.00;100939.69;4951488;28;20511;-62
2022/11/25 04:49:50;;;;;;;5.07;1.38;;;;;;;7.18;100.00;100949.03;4950942;28;20027;-62
2022/11/25 04:52:15;;;;;;;4.13;1.42;;;;;;;7.17;100.00;100954.09;4951070;28;20019;-62
2022/11/25 04:54:41;;;;;;;6.38;1.50;;;;;;;7.14;100.00;100947.09;4974923;28;20238;-62
2022/11/25 04:57:11;;;;;;;5.88;1.35;;;;;;;7.13;100.00;100945.34;4951677;28;20451;-62
2022/11/25 04:59:39;;;;;;;6.60;1.60;;;;;;;7.14;100.00;100947.09;4951160;28;20043;-63
2022/11/25 05:02:15;;;;;;;10.10;1.77;;;;;;;7.09;100.00;100935.69;4950493;28;20027;-62
2022/11/25 05:04:42;;;;;;;5.50;1.50;;;;;;;7.08;100.00;100942.56;4949899;28;20031;-63
2022/11/25 05:07:07;;;;;;;6.03;1.73;;;;;;;7.08;100.00;100954.56;4951105;28;20106;-63
2022/11/25 05:09:33;;;;;;;8.70;1.33;;;;;;;7.08;100.00;100967.44;4951229;28;20515;-62
2022/11/25 05:11:58;;;;;;;8.55;1.52;;;;;;;7.07;100.00;100968.22;4951662;28;20051;-62
2022/11/25 05:14:24;;;;;;;7.40;1.90;;;;;;;7.05;100.00;100965.59;4975890;28;20034;-63
2022/11/25 05:16:50;;;;;;;3.78;1.42;;;;;;;7.04;100.00;100970.66;4950447;28;20483;-62
2022/11/25 05:19:15;;;;;;;5.03;1.38;;;;;;;7.04;100.00;100965.50;4951096;28;20027;-62
2022/11/25 05:21:40;;;;;;;4.50;1.60;;;;;;;7.01;100.00;100966.25;4950459;28;20155;-62
2022/11/25 05:24:06;;;;;;;6.65;1.45;;;;;;;6.99;100.00;100966.97;4950320;28;20450;-62
2022/11/25 05:26:31;;;;;;;4.18;1.38;;;;;;;6.94;100.00;100967.63;4974011;28;20030;-62
2022/11/25 05:28:56;;;;;;;5.25;1.67;;;;;;;6.92;100.00;100966.69;4956145;28;20594;-62
2022/11/25 05:31:22;;;;;;;6.32;1.90;;;;;;;6.88;100.00;100969.03;4967997;28;20041;-62
2022/11/25 05:33:47;;;;;;;8.30;1.73;;;;;;;6.85;100.00;100965.50;4964063;28;20023;-62
2022/11/25 05:36:12;;;;;;;6.70;1.83;;;;;;;6.83;100.00;100961.97;4949988;28;20042;-61
2022/11/25 05:38:37;;;;;;;6.30;2.00;;;;;;;6.85;100.00;100964.63;4952173;28;20045;-62
2022/11/25 05:41:05;;;;;;;5.93;1.75;;;;;;;6.84;100.00;100963.72;4962623;28;20014;-62
2022/11/25 05:43:31;;;;;;;6.60;1.42;;;;;;;6.84;100.00;100973.16;4953161;28;20034;-62
2022/11/25 05:45:56;;;;;;;6.03;1.85;;;;;;;6.84;100.00;100973.16;4950212;28;20031;-62
2022/11/25 05:48:22;;;;;;;8.75;2.00;;;;;;;6.83;100.00;100981.69;4949398;28;20043;-62
2022/11/25 05:50:47;;;;;;;7.00;2.45;;;;;;;6.81;100.00;100979.06;4950938;28;20027;-62
2022/11/25 05:53:16;;;;;;;6.55;1.73;;;;;;;6.79;100.00;100977.19;4949120;28;20023;-63
2022/11/25 05:55:41;;;;;;;7.38;2.75;;;;;;;6.78;100.00;100978.00;4949818;28;20031;-62
2022/11/25 05:58:07;;;;;;;4.53;1.83;;;;;;;6.74;100.00;100984.69;4962786;28;20027;-63
2022/11/25 06:00:32;;;;;;;3.83;1.92;;;;;;;6.71;100.00;100982.84;4949676;28;20038;-63
2022/11/25 06:02:57;;;;;;;8.60;2.78;;;;;;;6.71;100.00;100982.84;4961233;28;20533;-63
2022/11/25 06:05:23;;;;;;;8.52;2.13;;;;;;;6.70;100.00;100990.50;4954411;28;20105;-62
2022/11/25 06:07:48;;;;;;;12.88;3.47;;;;;;;6.68;100.00;100993.00;4948482;28;20033;-62
2022/11/25 06:10:15;;;;;;;7.28;1.95;;;;;;;6.66;100.00;100989.47;4950583;28;20739;-63
2022/11/25 06:12:41;;;;;;;7.38;2.05;;;;;;;6.66;100.00;100989.47;4961339;28;20395;-62
2022/11/25 06:15:07;;;;;;;4.88;2.13;;;;;;;6.64;100.00;101001.38;4953309;28;20089;-62
2022/11/25 06:17:32;;;;;;;5.95;2.33;;;;;;;6.62;100.00;101002.97;4949229;28;20039;-63
2022/11/25 06:19:57;;;;;;;6.30;2.60;;;;;;;6.63;100.00;101004.75;4952508;28;20034;-63
2022/11/25 06:22:22;;;;;;;7.72;2.42;;;;;;;6.60;100.00;101004.63;4956470;28;20410;-63
2022/11/25 06:24:48;;;;;;;7.07;2.80;;;;;;;6.59;100.00;101007.97;4951672;28;20033;-63
2022/11/25 06:27:13;;;;;;;7.97;2.25;;;;;;;6.60;100.00;101020.06;4949817;28;20066;-62
2022/11/25 06:29:38;;;;;;;5.88;2.20;;;;;;;6.58;100.00;101019.97;4952332;28;20023;-63
2022/11/25 06:32:04;;;;;;;6.70;1.80;;;;;;;6.57;100.00;101025.03;4952672;28;20011;-63
2022/11/25 06:34:29;;;;;;;8.25;2.40;;;;;;;6.54;100.00;101019.72;4949079;28;20035;-63
2022/11/25 06:36:54;;;;;;;8.93;2.72;;;;;;;6.51;100.00;101017.00;4948908;28;20031;-62
2022/11/25 06:39:20;;;;;;;7.38;3.42;;;;;;;6.49;100.00;101025.53;4947552;28;20114;-63
2022/11/25 06:41:46;;;;;;;8.75;3.75;;;;;;;6.48;100.00;101036.63;4948326;28;20027;-62
2022/11/25 06:44:11;;;;;;;7.15;4.20;;;;;;;6.48;100.00;101046.03;4947828;28;20379;-63
2022/11/25 06:46:37;;;;;;;6.78;2.05;;;;;;;6.46;100.00;101040.81;4950282;28;20105;-62
2022/11/25 06:49:02;;;;;;;8.32;3.25;;;;;;;6.43;100.00;101040.66;4951447;28;20027;-62
2022/11/25 06:51:27;;;;;;;4.97;3.05;;;;;;;6.42;100.00;101051.75;4949353;28;20525;-62
2022/11/25 06:53:53;;;;;;;6.95;3.30;;;;;;;6.40;100.00;101058.53;4948426;28;20038;-62
2022/11/25 06:56:24;;;;;;;7.90;3.83;;;;;;;6.36;100.00;101051.44;4949894;28;20074;-63
2022/11/25 06:58:51;;;;;;;6.85;3.38;;;;;;;6.34;100.00;101048.78;4945012;28;20078;-62
2022/11/25 07:01:22;;;;;;;7.85;2.85;;;;;;;6.31;100.00;101053.78;4947172;28;20602;-62
2022/11/25 07:03:52;;;;;;;9.98;3.50;;;;;;;6.31;100.00;101052.88;4951723;28;20102;-63
2022/11/25 07:06:18;;;;;;;7.72;3.22;;;;;;;6.30;100.00;101058.81;4950433;28;20034;-63
2022/11/25 07:08:44;;;;;;;11.32;3.63;;;;;;;6.28;100.00;101068.19;4945943;28;20137;-62
2022/11/25 07:11:15;;;;;;;9.00;3.15;;;;;;;6.26;100.00;101072.34;4949348;28;20554;-62
2022/11/25 07:13:40;;;;;;;6.17;4.00;;;;;;;6.23;100.00;101076.53;4947505;28;20066;-62
2022/11/25 07:16:06;;;;;;;7.88;3.72;;;;;;;6.22;100.00;101086.75;4952558;28;20109;-62
2022/11/25 07:18:33;;;;;;;9.02;4.07;;;;;;;6.20;100.00;101086.66;4950280;28;20023;-62
2022/11/25 07:21:06;;;;;;;8.57;3.47;;;;;;;6.18;100.00;101093.41;4948059;28;20035;-63
2022/11/25 07:23:33;;;;;;;9.73;3.45;;;;;;;6.16;100.00;101097.59;4949476;28;20039;-63
2022/11/25 07:26:08;;;;;;;9.32;3.80;;;;;;;6.11;100.00;101091.31;4948228;28;20112;-62
2022/11/25 07:28:34;;;;;;;12.57;5.00;;;;;;;6.10;100.00;101102.38;4951014;28;20031;-62
2022/11/25 07:31:12;;;;;;;11.98;3.53;;;;;;;6.07;100.00;101105.69;4959962;28;20398;-62
2022/11/25 07:33:37;;;;;;;9.13;3.70;;;;;;;6.07;100.00;101109.94;4951135;28;20031;-62
2022/11/25 07:36:05;;;;;;;10.90;3.78;;;;;;;6.06;100.00;101113.34;4951829;28;20106;-63
2022/11/25 07:38:30;;;;;;;8.82;3.65;;;;;;;6.07;100.00;101120.25;4953982;28;20101;-62
2022/11/25 07:41:01;;;;;;;12.27;3.70;;;;;;;6.07;100.00;101120.25;4960893;28;20036;-63
2022/11/25 07:43:26;;;;;;;11.73;3.97;;;;;;;6.05;100.00;101122.72;4964797;28;20039;-63
2022/11/25 07:45:52;;;;;;;10.85;4.15;;;;;;;6.05;100.00;101137.25;4958847;28;20549;-63
2022/11/25 07:48:17;;;;;;;10.45;4.32;;;;;;;6.05;100.00;101142.38;4956061;28;20050;-62
2022/11/25 07:50:42;;;;;;;14.95;6.40;;;;;;;6.04;100.00;101150.91;4955024;28;20035;-63
2022/11/25 07:53:07;;;;;;;16.00;6.78;;;;;;;6.07;100.00;101152.00;4953299;28;20069;-63
2022/11/25 07:55:33;;;;;;;11.77;5.57;;;;;;;6.06;100.00;101157.94;4952739;28;20379;-63
2022/11/25 07:57:58;;;;;;;14.85;6.00;;;;;;;6.06;100.00;101165.66;4952631;28;20030;-63
2022/11/25 08:00:23;;;;;;;11.93;4.75;;;;;;;6.09;100.00;101164.97;4953076;28;20491;-63
2022/11/25 08:02:49;;;;;;;12.00;4.88;;;;;;;6.09;100.00;101164.97;4954561;28;20030;-63
2022/11/25 08:05:14;;;;;;;9.45;4.32;;;;;;;6.10;100.00;101171.88;4952109;28;20024;-63
2022/11/25 08:07:39;;;;;;;6.80;3.90;;;;;;;6.11;100.00;101174.56;4951854;28;20039;-63
2022/11/25 08:10:05;;;;;;;11.38;4.00;;;;;;;6.12;100.00;101183.13;4953139;28;20016;-62
2022/11/25 08:12:32;;;;;;;10.02;3.92;;;;;;;6.15;100.00;101185.91;4951290;28;20042;-62
2022/11/25 08:14:57;;;;;;;12.65;4.60;;;;;;;6.19;100.00;101192.97;4951594;28;20019;-62
2022/11/25 08:17:22;;;;;;;12.05;4.68;;;;;;;6.19;100.00;101192.97;4952881;28;20487;-62
2022/11/25 08:19:47;;;;;;;8.23;4.45;;;;;;;6.21;100.00;101190.47;4950791;28;20033;-63
2022/11/25 08:22:13;;;;;;;12.77;4.57;;;;;;;6.23;100.00;101194.94;4964976;28;20031;-62
2022/11/25 08:24:38;;;;;;;14.05;4.85;;;;;;;6.25;100.00;101197.59;4955078;28;20022;-63
2022/11/25 08:27:03;;;;;;;11.38;3.65;;;;;;;6.27;100.00;101202.81;4950636;28;20282;-63
2022/11/25 08:29:29;;;;;;;8.43;3.40;;;;;;;6.29;100.00;101202.09;4951331;28;20027;-62
2022/11/25 08:31:54;;;;;;;9.70;3.73;;;;;;;6.32;100.00;101204.84;4949479;28;20035;-62
2022/11/25 08:34:23;;;;;;;10.10;3.10;;;;;;;6.36;100.00;101206.78;4951622;28;20023;-62
2022/11/25 08:36:48;;;;;;;8.32;3.65;;;;;;;6.41;100.00;101207.03;4955756;28;20033;-62
2022/11/25 08:39:14;;;;;;;7.65;2.92;;;;;;;6.43;100.00;101208.00;4956060;28;20035;-62
2022/11/25 08:41:40;;;;;;;11.10;3.08;;;;;;;6.46;100.00;101207.28;4949854;28;20066;-62
2022/11/25 08:44:08;;;;;;;8.88;2.47;;;;;;;6.48;100.00;101211.72;4952538;28;20467;-62
2022/11/25 08:46:37;;;;;;;7.72;3.22;;;;;;;6.54;100.00;101210.28;4951940;28;20051;-62
2022/11/25 08:49:04;;;;;;;9.65;2.95;;;;;;;6.55;100.00;101206.91;4952686;28;20404;-62
2022/11/25 08:51:32;;;;;;;7.75;2.90;;;;;;;6.58;100.00;101214.81;4951126;28;20031;-63
2022/11/25 08:53:58;;;;;;;6.18;2.30;;;;;;;6.62;100.00;101215.88;4954387;28;20125;-62
2022/11/25 08:56:25;;;;;;;7.40;3.40;;;;;;;6.65;100.00;101218.59;4955546;28;20422;-62
2022/11/25 08:58:51;;;;;;;10.80;3.08;;;;;;;6.68;100.00;101219.66;4952788;28;20411;-63
2022/11/25 09:01:18;;;;;;;12.15;3.05;;;;;;;6.72;100.00;101225.84;4951793;28;20035;-62
2022/11/25 09:03:46;;;;;;;10.82;2.92;;;;;;;6.77;100.00;101223.50;4950590;28;20031;-62
2022/11/25 09:06:13;;;;;;;6.93;2.03;;;;;;;6.81;100.00;101226.34;4962125;28;20423;-62
2022/11/25 09:08:39;;;;;;;8.07;2.72;;;;;;;6.87;100.00;101232.63;4952248;28;20114;-63
2022/11/25 09:11:05;;;;;;;8.18;2.67;;;;;;;6.90;100.00;101236.25;4960466;28;20039;-62
2022/11/25 09:13:31;;;;;;;10.23;3.00;;;;;;;6.94;100.00;101238.19;4951959;28;20798;-62
2022/11/25 09:15:56;;;;;;;7.72;2.65;;;;;;;6.97;100.00;101238.38;4956028;28;20053;-63
2022/11/25 09:18:25;;;;;;;9.95;2.90;;;;;;;7.02;100.00;101240.28;4948622;28;20117;-62
2022/11/25 09:20:51;;;;;;;10.85;2.97;;;;;;;7.05;100.00;101240.47;4951833;28;20408;-63
2022/11/25 09:23:17;;;;;;;11.20;3.00;;;;;;;7.09;100.00;101244.94;4948899;28;20073;-63
2022/11/25 09:25:50;;;;;;;8.55;3.17;;;;;;;7.13;100.00;101253.75;4951703;28;20074;-62
2022/11/25 09:28:15;;;;;;;6.57;2.60;;;;;;;7.16;100.00;101249.63;4954698;28;20403;-62
2022/11/25 09:30:40;;;;;;;10.00;3.00;;;;;;;7.18;100.00;101258.34;4959870;28;20066;-63
2022/11/25 09:33:06;;;;;;;15.95;4.68;;;;;;;7.23;100.00;101270.59;4950442;28;20023;-63
2022/11/25 09:35:31;;;;;;;8.93;2.97;;;;;;;7.26;100.00;101265.59;4954269;28;20086;-62
2022/11/25 09:37:56;;;;;;;8.50;3.28;;;;;;;7.29;100.00;101260.59;4951522;28;20393;-62
2022/11/25 09:40:47;;;;;;;7.00;2.95;;;;;;;7.33;100.00;101262.53;4948607;28;20043;-62
2022/11/25 09:46:53;;;;;;;9.90;3.67;;;;;;;7.39;100.00;101286.06;4951656;28;20050;-62
2022/11/25 09:49:52;;;;;;;5.45;3.08;;;;;;;7.43;100.00;101299.97;4954228;28;20042;-62
2022/11/25 09:52:17;;;;;;;11.93;3.67;;;;;;;7.47;100.00;101293.28;4957957;28;20546;-62
2022/11/25 09:55:04;;;;;;;11.07;3.35;;;;;;;7.53;100.00;101293.63;4956093;28;20035;-62
2022/11/25 09:57:46;;;;;;;6.90;3.55;;;;;;;7.59;100.00;101298.22;4949696;28;20034;-63
2022/11/25 10:00:18;;;;;;;12.23;3.30;;;;;;;7.60;100.00;101300.88;4948509;28;20888;-62
2022/11/25 10:02:56;;;;;;;9.13;3.63;;;;;;;7.66;100.00;101300.31;4949948;28;20450;-63
2022/11/25 10:05:33;;;;;;;7.30;3.10;;;;;;;7.70;100.00;101302.22;4951261;28;20491;-63
2022/11/25 10:08:14;;;;;;;8.23;3.65;;;;;;;7.75;100.00;101300.78;4950456;28;20031;-62
2022/11/25 10:10:48;;;;;;;9.15;3.53;;;;;;;7.78;100.00;101306.09;4948620;28;20356;-62
2022/11/25 10:13:52;;;;;;;8.30;3.22;;;;;;;7.82;100.00;101307.13;4950008;28;20011;-63
2022/11/25 10:16:38;;;;;;;7.60;2.70;;;;;;;7.86;100.00;101314.19;4951673;28;20047;-62
2022/11/25 10:19:23;;;;;;;7.68;2.95;;;;;;;7.91;100.00;101324.78;4949638;28;20592;-63
2022/11/25 10:21:48;;;;;;;8.88;3.00;;;;;;;7.96;100.00;101328.47;4949371;28;20577;-62
2022/11/25 10:24:16;;;;;;;9.45;2.70;;;;;;;8.00;100.00;101332.09;4950730;28;20046;-62
2022/11/25 10:26:47;;;;;;;7.97;3.28;;;;;;;8.03;100.00;101347.72;4949124;28;20134;-62
2022/11/25 10:29:12;;;;;;;7.22;2.95;;;;;;;8.09;100.00;101347.16;4953876;28;20101;-62
2022/11/25 10:31:40;;;;;;;10.43;2.92;;;;;;;8.11;100.00;101346.41;4948431;28;20031;-62
2022/11/25 10:34:30;;;;;;;10.35;2.47;;;;;;;8.17;100.00;101348.41;4949244;28;20087;-62
2022/11/25 10:36:58;;;;;;;5.63;2.35;;;;;;;8.19;100.00;101353.66;4952072;28;20019;-62
2022/11/25 10:39:27;;;;;;;6.97;2.40;;;;;;;8.19;100.00;101356.25;4965116;28;20027;-62
2022/11/25 10:42:02;;;;;;;9.07;3.58;;;;;;;8.23;100.00;101353.91;4949443;28;20078;-62
2022/11/25 10:44:33;;;;;;;8.85;3.20;;;;;;;8.26;100.00;101348.88;4957300;28;20163;-62
2022/11/25 10:47:16;;;;;;;8.02;2.40;;;;;;;8.31;100.00;101361.16;4948513;28;20055;-62
2022/11/25 10:49:58;;;;;;;6.63;2.63;;;;;;;8.36;100.00;101364.84;4955004;28;20034;-62
2022/11/25 10:52:29;;;;;;;10.15;2.95;;;;;;;8.38;100.00;101369.25;4948655;28;20031;-63
2022/11/25 10:55:10;;;;;;;8.27;2.47;;;;;;;8.41;100.00;101373.69;4953317;28;20054;-63
2022/11/25 10:57:35;;;;;;;4.05;1.77;;;;;;;8.44;100.00;101367.81;4948235;28;20051;-63
2022/11/25 11:00:03;;;;;;;9.05;2.33;;;;;;;8.49;100.00;101376.69;4946074;28;20034;-63
2022/11/25 11:02:37;;;;;;;8.18;2.35;;;;;;;8.51;100.00;101377.59;4950138;28;20032;-63
2022/11/25 11:05:09;;;;;;;7.30;2.65;;;;;;;8.59;100.00;101378.03;4950990;28;20061;-64
2022/11/25 11:07:36;;;;;;;;;;;;;;;8.63;100.00;101377.38;4956190;28;20027;-63
2022/11/25 11:10:13;;;;;;;7.20;2.30;;;;;;;8.72;100.00;101384.69;4951289;28;19917;-63
2022/11/25 11:13:02;;;;;;;11.63;2.55;;;;;;;8.73;100.00;101379.59;4956153;28;20110;-63
2022/11/25 11:15:40;;;;;;;8.48;2.30;;;;;;;8.77;100.00;101381.53;4950976;28;20043;-63
2022/11/25 11:18:37;;;;;;;8.00;2.95;;;;;;;8.83;100.00;101391.25;4951076;28;20592;-63
2022/11/25 11:21:05;;;;;;;7.07;2.10;;;;;;;8.85;100.00;101401.69;4952904;28;20554;-62
2022/11/25 11:23:46;;;;;;;7.78;2.85;;;;;;;8.87;100.00;101400.94;4951802;28;20035;-63
2022/11/25 11:26:21;;;;;;;;;;;;;;;8.94;100.00;101406.41;4961517;28;20057;-62
2022/11/25 11:28:46;;;;;;;6.13;2.15;;;;;;;8.99;100.00;101410.94;4958104;28;20052;-63
2022/11/25 11:31:23;;;;;;;10.18;2.72;;;;;;;9.07;100.00;101418.19;4958381;28;20118;-62